HBPZR LZIB-LZIB
Flight info
| Callsign | HBPZR |
|---|---|
| Flight time | N/A |
| Altitude | 1500 |
| Route | CIRCUIT PATTERN |
| Aircraft | P28A/L-SDFGRY/S |
Departure
| Time | 2026-05-04 18:15 |
|---|---|
| Airport | M. R. Štefánik Airport (LZIB) |
Arrival
| Time | N/A |
|---|---|
| Airport | M. R. Štefánik Airport (LZIB) |
| Time | Latitude | Longitude | Altitude | Speed | Heading |
|---|---|---|---|---|---|
| 2026-05-04 18:04 | 48.16476 | 17.19688 | 439 ft | 0 kts | 193° |
| 2026-05-04 18:09 | 48.16444 | 17.19709 | 439 ft | 9 kts | 136° |
| 2026-05-04 18:09 | 48.16383 | 17.19952 | 439 ft | 14 kts | 37° |
| 2026-05-04 18:10 | 48.16476 | 17.20070 | 439 ft | 19 kts | 41° |
| 2026-05-04 18:10 | 48.16553 | 17.20169 | 437 ft | 16 kts | 40° |
| 2026-05-04 18:10 | 48.16649 | 17.20291 | 433 ft | 17 kts | 45° |
| 2026-05-04 18:10 | 48.16735 | 17.20406 | 438 ft | 20 kts | 47° |
| 2026-05-04 18:11 | 48.16822 | 17.20531 | 438 ft | 19 kts | 46° |
| 2026-05-04 18:11 | 48.16911 | 17.20670 | 438 ft | 21 kts | 46° |
| 2026-05-04 18:11 | 48.16993 | 17.20800 | 438 ft | 13 kts | 43° |
| 2026-05-04 18:11 | 48.17048 | 17.20888 | 438 ft | 14 kts | 51° |
| 2026-05-04 18:12 | 48.17069 | 17.20921 | 437 ft | 0 kts | 45° |
| 2026-05-04 18:13 | 48.17100 | 17.20967 | 436 ft | 16 kts | 45° |
| 2026-05-04 18:13 | 48.17135 | 17.21078 | 436 ft | 7 kts | 130° |
| 2026-05-04 18:13 | 48.17055 | 17.21201 | 429 ft | 33 kts | 134° |
| 2026-05-04 18:14 | 48.16899 | 17.21445 | 432 ft | 63 kts | 134° |
| 2026-05-04 18:14 | 48.16537 | 17.21962 | 561 ft | 78 kts | 141° |
| 2026-05-04 18:14 | 48.16147 | 17.22596 | 719 ft | 86 kts | 133° |
| 2026-05-04 18:15 | 48.15357 | 17.23974 | 1212 ft | 85 kts | 155° |
| 2026-05-04 18:15 | 48.14860 | 17.22713 | 1651 ft | 113 kts | 295° |
| 2026-05-04 18:15 | 48.15485 | 17.21931 | 1854 ft | 117 kts | 312° |
| 2026-05-04 18:16 | 48.16141 | 17.21182 | 1997 ft | 124 kts | 314° |
| 2026-05-04 18:16 | 48.16862 | 17.20354 | 2011 ft | 136 kts | 314° |
| 2026-05-04 18:16 | 48.17634 | 17.19465 | 2009 ft | 145 kts | 321° |
| 2026-05-04 18:17 | 48.19491 | 17.20109 | 2009 ft | 146 kts | 44° |
| 2026-05-04 18:17 | 48.20300 | 17.21016 | 2004 ft | 144 kts | 47° |
| 2026-05-04 18:17 | 48.20539 | 17.22827 | 2016 ft | 106 kts | 134° |
| 2026-05-04 18:18 | 48.20062 | 17.23846 | 1714 ft | 131 kts | 135° |
| 2026-05-04 18:18 | 48.19226 | 17.24160 | 1478 ft | 135 kts | 197° |
| 2026-05-04 18:18 | 48.18480 | 17.23438 | 833 ft | 112 kts | 227° |
| 2026-05-04 18:18 | 48.18019 | 17.22734 | 505 ft | 80 kts | 226° |
| 2026-05-04 18:19 | 48.17293 | 17.21722 | 586 ft | 61 kts | 223° |
| 2026-05-04 18:19 | 48.16988 | 17.21310 | 681 ft | 66 kts | 223° |
| 2026-05-04 18:19 | 48.16603 | 17.20762 | 759 ft | 86 kts | 224° |
| 2026-05-04 18:20 | 48.16130 | 17.20061 | 826 ft | 104 kts | 227° |
| 2026-05-04 18:20 | 48.15623 | 17.19260 | 958 ft | 108 kts | 238° |
| 2026-05-04 18:20 | 48.15682 | 17.18239 | 1167 ft | 103 kts | 313° |
| 2026-05-04 18:20 | 48.16174 | 17.17508 | 1421 ft | 97 kts | 314° |
| 2026-05-04 18:21 | 48.16673 | 17.16853 | 1668 ft | 95 kts | 337° |
| 2026-05-04 18:21 | 48.17239 | 17.17154 | 1912 ft | 91 kts | 47° |
| 2026-05-04 18:21 | 48.17708 | 17.17821 | 2040 ft | 101 kts | 45° |
| 2026-05-04 18:21 | 48.18248 | 17.18628 | 2045 ft | 117 kts | 45° |
| 2026-05-04 18:22 | 48.18834 | 17.19493 | 2041 ft | 124 kts | 44° |
| 2026-05-04 18:22 | 48.19451 | 17.20404 | 2046 ft | 127 kts | 44° |
| 2026-05-04 18:22 | 48.20039 | 17.21387 | 2016 ft | 129 kts | 62° |
| 2026-05-04 18:22 | 48.19996 | 17.22766 | 1670 ft | 144 kts | 122° |
| 2026-05-04 18:23 | 48.19298 | 17.23818 | 1401 ft | 144 kts | 155° |
| 2026-05-04 18:23 | 48.18433 | 17.23395 | 844 ft | 141 kts | 229° |
| 2026-05-04 18:23 | 48.17738 | 17.22347 | 563 ft | 140 kts | 224° |
| 2026-05-04 18:23 | 48.17066 | 17.21390 | 588 ft | 129 kts | 225° |
| 2026-05-04 18:24 | 48.16438 | 17.20471 | 686 ft | 120 kts | 224° |
| 2026-05-04 18:24 | 48.15906 | 17.19607 | 924 ft | 109 kts | 248° |
| 2026-05-04 18:24 | 48.16080 | 17.18642 | 1161 ft | 102 kts | 324° |
| 2026-05-04 18:24 | 48.16672 | 17.18131 | 1414 ft | 96 kts | 320° |
| 2026-05-04 18:25 | 48.17281 | 17.18112 | 1664 ft | 94 kts | 39° |
| 2026-05-04 18:25 | 48.17829 | 17.18859 | 1529 ft | 120 kts | 41° |
| 2026-05-04 18:25 | 48.18071 | 17.19842 | 1050 ft | 123 kts | 149° |
| 2026-05-04 18:25 | 48.17445 | 17.20626 | 534 ft | 96 kts | 139° |
| 2026-05-04 18:26 | 48.17033 | 17.21252 | 491 ft | 82 kts | 134° |
| 2026-05-04 18:26 | 48.16664 | 17.21855 | 578 ft | 77 kts | 139° |
| 2026-05-04 18:26 | 48.16323 | 17.22352 | 776 ft | 56 kts | 125° |
| 2026-05-04 18:26 | 48.16435 | 17.22975 | 762 ft | 79 kts | 11° |
| 2026-05-04 18:27 | 48.16910 | 17.22565 | 905 ft | 87 kts | 313° |
| 2026-05-04 18:27 | 48.17321 | 17.21869 | 1100 ft | 91 kts | 310° |
| 2026-05-04 18:27 | 48.17773 | 17.21105 | 1142 ft | 109 kts | 315° |
| 2026-05-04 18:27 | 48.18361 | 17.20266 | 1122 ft | 120 kts | 317° |
| 2026-05-04 18:28 | 48.18975 | 17.19517 | 1286 ft | 114 kts | 356° |
| 2026-05-04 18:28 | 48.19295 | 17.20366 | 1386 ft | 116 kts | 121° |
| 2026-05-04 18:28 | 48.18717 | 17.20301 | 1476 ft | 112 kts | 265° |
| 2026-05-04 18:28 | 48.19293 | 17.20201 | 1467 ft | 116 kts | 72° |
| 2026-05-04 18:29 | 48.18789 | 17.20799 | 1467 ft | 120 kts | 205° |